In Rescue
 
Open Full Screen Window  High Contrast Mode
Wind Gusting 00 knots
04
November 25, 2020 6:29 AM EST
Present Weather: Mist
Weather Information
Wind Direction
  140 °
Wind Speed
  04 kt (5 mph)
Wind Gust
  00 kt (0 mph)
Altimeter
29.88 in
Visibility
4 SM
Temperature
06° C
43° F
Dewpoint
05° C
41° F
Humidity
93%
1hr Rain Fall
00.00 in.
24hr Rain Fall
00.06 in.
Sky Condition
Overcast @ 900 ft
IFR

METAR KIRS 251129Z AUTO 14004KT 4SM BR OVC009 06/05 A2988 RMK AO2 T00560047

FAA Disclaimer: The data displayed is for advisory purposes only and is not to be used for flight planning or operations.